sensor_id;sensor_type;location;lat;lon;timestamp;P1;durP1;ratioP1;P2;durP2;ratioP2
59972;SDS011;55298;-36.624;-64.282;2022-07-24T00:00:22;39.30;;;27.10;;
59972;SDS011;55298;-36.624;-64.282;2022-07-24T00:02:51;38.55;;;28.38;;
59972;SDS011;55298;-36.624;-64.282;2022-07-24T00:05:24;37.92;;;28.13;;
59972;SDS011;55298;-36.624;-64.282;2022-07-24T00:07:51;36.83;;;28.33;;
59972;SDS011;55298;-36.624;-64.282;2022-07-24T00:10:20;39.47;;;27.88;;
59972;SDS011;55298;-36.624;-64.282;2022-07-24T00:12:49;39.60;;;29.67;;
59972;SDS011;55298;-36.624;-64.282;2022-07-24T00:15:17;46.30;;;35.17;;
59972;SDS011;55298;-36.624;-64.282;2022-07-24T00:17:45;44.83;;;33.13;;
59972;SDS011;55298;-36.624;-64.282;2022-07-24T00:20:14;44.72;;;34.33;;
59972;SDS011;55298;-36.624;-64.282;2022-07-24T00:22:41;45.55;;;35.72;;
59972;SDS011;55298;-36.624;-64.282;2022-07-24T00:25:11;43.13;;;33.45;;
59972;SDS011;55298;-36.624;-64.282;2022-07-24T00:27:39;49.92;;;35.53;;
59972;SDS011;55298;-36.624;-64.282;2022-07-24T00:30:08;48.10;;;32.25;;
59972;SDS011;55298;-36.624;-64.282;2022-07-24T00:32:36;44.63;;;33.17;;
59972;SDS011;55298;-36.624;-64.282;2022-07-24T00:35:06;42.17;;;31.10;;
59972;SDS011;55298;-36.624;-64.282;2022-07-24T00:37:34;44.65;;;30.65;;
59972;SDS011;55298;-36.624;-64.282;2022-07-24T00:40:03;44.60;;;30.75;;
59972;SDS011;55298;-36.624;-64.282;2022-07-24T00:42:31;43.78;;;31.08;;
59972;SDS011;55298;-36.624;-64.282;2022-07-24T00:45:01;47.42;;;32.20;;
59972;SDS011;55298;-36.624;-64.282;2022-07-24T00:47:30;44.40;;;31.35;;
59972;SDS011;55298;-36.624;-64.282;2022-07-24T00:49:58;43.63;;;29.60;;
59972;SDS011;55298;-36.624;-64.282;2022-07-24T00:52:29;39.47;;;27.60;;
59972;SDS011;55298;-36.624;-64.282;2022-07-24T00:54:59;52.40;;;36.33;;
59972;SDS011;55298;-36.624;-64.282;2022-07-24T00:57:27;54.47;;;37.05;;
59972;SDS011;55298;-36.624;-64.282;2022-07-24T00:59:57;55.90;;;38.25;;
59972;SDS011;55298;-36.624;-64.282;2022-07-24T01:02:26;52.28;;;33.28;;
59972;SDS011;55298;-36.624;-64.282;2022-07-24T01:04:55;43.75;;;31.27;;
59972;SDS011;55298;-36.624;-64.282;2022-07-24T01:07:23;54.35;;;36.22;;
59972;SDS011;55298;-36.624;-64.282;2022-07-24T01:09:55;56.15;;;38.55;;
59972;SDS011;55298;-36.624;-64.282;2022-07-24T01:12:23;48.55;;;33.95;;
59972;SDS011;55298;-36.624;-64.282;2022-07-24T01:14:53;51.90;;;33.78;;
59972;SDS011;55298;-36.624;-64.282;2022-07-24T01:17:21;49.03;;;35.05;;
59972;SDS011;55298;-36.624;-64.282;2022-07-24T01:19:49;46.83;;;32.35;;
59972;SDS011;55298;-36.624;-64.282;2022-07-24T01:22:20;49.40;;;33.33;;
59972;SDS011;55298;-36.624;-64.282;2022-07-24T01:24:48;52.58;;;36.92;;
59972;SDS011;55298;-36.624;-64.282;2022-07-24T01:27:17;60.20;;;37.92;;
59972;SDS011;55298;-36.624;-64.282;2022-07-24T01:29:46;57.45;;;38.08;;
59972;SDS011;55298;-36.624;-64.282;2022-07-24T01:32:14;57.38;;;37.92;;
59972;SDS011;55298;-36.624;-64.282;2022-07-24T01:34:43;56.22;;;37.47;;
59972;SDS011;55298;-36.624;-64.282;2022-07-24T01:37:12;48.60;;;31.00;;
59972;SDS011;55298;-36.624;-64.282;2022-07-24T01:39:41;56.50;;;34.83;;
59972;SDS011;55298;-36.624;-64.282;2022-07-24T01:42:09;56.10;;;37.25;;
59972;SDS011;55298;-36.624;-64.282;2022-07-24T01:44:37;62.25;;;35.47;;
59972;SDS011;55298;-36.624;-64.282;2022-07-24T01:47:06;56.72;;;37.05;;
59972;SDS011;55298;-36.624;-64.282;2022-07-24T01:49:33;55.17;;;36.80;;
59972;SDS011;55298;-36.624;-64.282;2022-07-24T01:52:02;53.88;;;33.85;;
59972;SDS011;55298;-36.624;-64.282;2022-07-24T01:54:30;57.45;;;37.28;;
59972;SDS011;55298;-36.624;-64.282;2022-07-24T01:56:59;63.35;;;38.97;;
59972;SDS011;55298;-36.624;-64.282;2022-07-24T01:59:27;56.50;;;35.15;;
59972;SDS011;55298;-36.624;-64.282;2022-07-24T02:01:56;50.60;;;33.00;;
59972;SDS011;55298;-36.624;-64.282;2022-07-24T02:04:25;56.55;;;34.13;;
59972;SDS011;55298;-36.624;-64.282;2022-07-24T02:06:54;52.70;;;32.35;;
59972;SDS011;55298;-36.624;-64.282;2022-07-24T02:09:23;53.47;;;30.45;;
59972;SDS011;55298;-36.624;-64.282;2022-07-24T02:11:51;55.13;;;32.35;;
59972;SDS011;55298;-36.624;-64.282;2022-07-24T02:14:19;55.78;;;33.83;;
59972;SDS011;55298;-36.624;-64.282;2022-07-24T02:16:47;60.30;;;34.88;;
59972;SDS011;55298;-36.624;-64.282;2022-07-24T02:19:15;58.55;;;36.13;;
59972;SDS011;55298;-36.624;-64.282;2022-07-24T02:21:44;56.90;;;36.90;;
59972;SDS011;55298;-36.624;-64.282;2022-07-24T02:24:12;69.07;;;39.78;;
59972;SDS011;55298;-36.624;-64.282;2022-07-24T02:26:40;50.28;;;31.15;;
59972;SDS011;55298;-36.624;-64.282;2022-07-24T02:29:09;54.70;;;30.85;;
59972;SDS011;55298;-36.624;-64.282;2022-07-24T02:31:38;51.25;;;28.25;;
59972;SDS011;55298;-36.624;-64.282;2022-07-24T02:34:05;55.63;;;31.63;;
59972;SDS011;55298;-36.624;-64.282;2022-07-24T02:36:35;81.15;;;36.70;;
59972;SDS011;55298;-36.624;-64.282;2022-07-24T02:39:03;61.40;;;31.45;;
59972;SDS011;55298;-36.624;-64.282;2022-07-24T02:41:31;80.45;;;35.17;;
59972;SDS011;55298;-36.624;-64.282;2022-07-24T02:43:59;72.45;;;34.47;;
59972;SDS011;55298;-36.624;-64.282;2022-07-24T02:46:30;90.93;;;33.65;;
59972;SDS011;55298;-36.624;-64.282;2022-07-24T02:48:58;109.65;;;41.25;;
59972;SDS011;55298;-36.624;-64.282;2022-07-24T02:51:27;126.40;;;40.47;;
59972;SDS011;55298;-36.624;-64.282;2022-07-24T02:53:56;165.35;;;46.92;;
59972;SDS011;55298;-36.624;-64.282;2022-07-24T02:56:27;150.38;;;46.85;;
59972;SDS011;55298;-36.624;-64.282;2022-07-24T02:58:55;131.52;;;46.70;;
59972;SDS011;55298;-36.624;-64.282;2022-07-24T03:01:24;234.90;;;58.45;;
59972;SDS011;55298;-36.624;-64.282;2022-07-24T03:03:52;110.00;;;43.95;;
59972;SDS011;55298;-36.624;-64.282;2022-07-24T03:06:20;265.52;;;61.88;;
59972;SDS011;55298;-36.624;-64.282;2022-07-24T03:08:48;114.82;;;42.78;;
59972;SDS011;55298;-36.624;-64.282;2022-07-24T03:11:17;89.05;;;42.92;;
59972;SDS011;55298;-36.624;-64.282;2022-07-24T03:13:46;138.77;;;50.47;;
59972;SDS011;55298;-36.624;-64.282;2022-07-24T03:16:14;96.97;;;39.83;;
59972;SDS011;55298;-36.624;-64.282;2022-07-24T03:18:42;80.57;;;34.58;;
59972;SDS011;55298;-36.624;-64.282;2022-07-24T03:21:14;78.57;;;36.42;;
59972;SDS011;55298;-36.624;-64.282;2022-07-24T03:23:45;147.38;;;42.78;;
59972;SDS011;55298;-36.624;-64.282;2022-07-24T03:26:13;137.38;;;40.65;;
59972;SDS011;55298;-36.624;-64.282;2022-07-24T03:28:42;83.03;;;35.13;;
59972;SDS011;55298;-36.624;-64.282;2022-07-24T03:31:11;130.57;;;41.83;;
59972;SDS011;55298;-36.624;-64.282;2022-07-24T03:33:39;131.35;;;41.50;;
59972;SDS011;55298;-36.624;-64.282;2022-07-24T03:36:07;95.13;;;38.17;;
59972;SDS011;55298;-36.624;-64.282;2022-07-24T03:38:35;229.73;;;49.90;;
59972;SDS011;55298;-36.624;-64.282;2022-07-24T03:41:04;128.82;;;43.28;;
59972;SDS011;55298;-36.624;-64.282;2022-07-24T03:43:33;86.05;;;38.42;;
59972;SDS011;55298;-36.624;-64.282;2022-07-24T03:46:02;217.48;;;55.08;;
59972;SDS011;55298;-36.624;-64.282;2022-07-24T03:48:30;122.18;;;49.78;;
59972;SDS011;55298;-36.624;-64.282;2022-07-24T03:50:58;254.45;;;58.72;;
59972;SDS011;55298;-36.624;-64.282;2022-07-24T03:53:27;241.77;;;58.97;;
59972;SDS011;55298;-36.624;-64.282;2022-07-24T03:55:55;246.88;;;59.55;;
59972;SDS011;55298;-36.624;-64.282;2022-07-24T03:58:23;170.52;;;56.72;;
59972;SDS011;55298;-36.624;-64.282;2022-07-24T04:00:53;307.70;;;63.85;;
59972;SDS011;55298;-36.624;-64.282;2022-07-24T04:03:21;202.02;;;60.38;;
59972;SDS011;55298;-36.624;-64.282;2022-07-24T04:05:50;146.55;;;61.40;;
59972;SDS011;55298;-36.624;-64.282;2022-07-24T04:08:18;220.77;;;63.17;;
59972;SDS011;55298;-36.624;-64.282;2022-07-24T04:10:47;106.38;;;44.08;;
59972;SDS011;55298;-36.624;-64.282;2022-07-24T04:13:15;103.22;;;41.05;;
59972;SDS011;55298;-36.624;-64.282;2022-07-24T04:15:43;122.40;;;53.47;;
59972;SDS011;55298;-36.624;-64.282;2022-07-24T04:18:11;117.60;;;55.92;;
59972;SDS011;55298;-36.624;-64.282;2022-07-24T04:20:43;264.02;;;65.22;;
59972;SDS011;55298;-36.624;-64.282;2022-07-24T04:23:11;324.92;;;70.88;;
59972;SDS011;55298;-36.624;-64.282;2022-07-24T04:25:40;170.40;;;55.42;;
59972;SDS011;55298;-36.624;-64.282;2022-07-24T04:28:09;136.52;;;47.65;;
59972;SDS011;55298;-36.624;-64.282;2022-07-24T04:30:38;157.45;;;53.05;;
59972;SDS011;55298;-36.624;-64.282;2022-07-24T04:33:06;173.13;;;48.88;;
59972;SDS011;55298;-36.624;-64.282;2022-07-24T04:35:37;217.23;;;52.78;;
59972;SDS011;55298;-36.624;-64.282;2022-07-24T04:38:07;161.07;;;53.28;;
59972;SDS011;55298;-36.624;-64.282;2022-07-24T04:40:36;252.02;;;63.60;;
59972;SDS011;55298;-36.624;-64.282;2022-07-24T04:43:04;207.60;;;57.28;;
59972;SDS011;55298;-36.624;-64.282;2022-07-24T04:45:34;215.50;;;49.67;;
59972;SDS011;55298;-36.624;-64.282;2022-07-24T04:48:02;292.02;;;60.53;;
59972;SDS011;55298;-36.624;-64.282;2022-07-24T04:50:31;233.05;;;55.40;;
59972;SDS011;55298;-36.624;-64.282;2022-07-24T04:53:00;236.55;;;54.80;;
59972;SDS011;55298;-36.624;-64.282;2022-07-24T04:55:28;204.85;;;47.08;;
59972;SDS011;55298;-36.624;-64.282;2022-07-24T04:57:57;138.93;;;47.50;;
59972;SDS011;55298;-36.624;-64.282;2022-07-24T05:00:26;170.43;;;49.75;;
59972;SDS011;55298;-36.624;-64.282;2022-07-24T05:02:54;195.25;;;48.72;;
59972;SDS011;55298;-36.624;-64.282;2022-07-24T05:05:23;156.93;;;43.80;;
59972;SDS011;55298;-36.624;-64.282;2022-07-24T05:07:53;144.55;;;43.50;;
59972;SDS011;55298;-36.624;-64.282;2022-07-24T05:10:21;162.27;;;48.72;;
59972;SDS011;55298;-36.624;-64.282;2022-07-24T05:12:49;166.18;;;50.00;;
59972;SDS011;55298;-36.624;-64.282;2022-07-24T05:15:18;167.98;;;52.03;;
59972;SDS011;55298;-36.624;-64.282;2022-07-24T05:17:46;182.50;;;53.13;;
59972;SDS011;55298;-36.624;-64.282;2022-07-24T05:23:44;239.93;;;51.67;;
59972;SDS011;55298;-36.624;-64.282;2022-07-24T05:26:12;179.27;;;48.63;;
59972;SDS011;55298;-36.624;-64.282;2022-07-24T05:28:40;199.25;;;50.05;;
59972;SDS011;55298;-36.624;-64.282;2022-07-24T05:31:09;219.88;;;52.08;;
59972;SDS011;55298;-36.624;-64.282;2022-07-24T05:33:37;241.77;;;55.00;;
59972;SDS011;55298;-36.624;-64.282;2022-07-24T05:36:05;258.25;;;56.72;;
59972;SDS011;55298;-36.624;-64.282;2022-07-24T05:38:35;193.40;;;56.70;;
59972;SDS011;55298;-36.624;-64.282;2022-07-24T05:41:05;141.50;;;50.03;;
59972;SDS011;55298;-36.624;-64.282;2022-07-24T05:43:33;176.88;;;57.15;;
59972;SDS011;55298;-36.624;-64.282;2022-07-24T05:46:03;158.93;;;52.35;;
59972;SDS011;55298;-36.624;-64.282;2022-07-24T05:48:31;174.68;;;56.58;;
59972;SDS011;55298;-36.624;-64.282;2022-07-24T05:50:59;132.73;;;50.42;;
59972;SDS011;55298;-36.624;-64.282;2022-07-24T05:53:27;170.57;;;52.53;;
59972;SDS011;55298;-36.624;-64.282;2022-07-24T05:55:56;156.93;;;50.67;;
59972;SDS011;55298;-36.624;-64.282;2022-07-24T05:58:23;167.35;;;54.80;;
59972;SDS011;55298;-36.624;-64.282;2022-07-24T06:00:52;157.98;;;48.78;;
59972;SDS011;55298;-36.624;-64.282;2022-07-24T06:03:21;196.90;;;54.20;;
59972;SDS011;55298;-36.624;-64.282;2022-07-24T06:05:48;142.75;;;48.20;;
59972;SDS011;55298;-36.624;-64.282;2022-07-24T06:08:19;175.32;;;51.53;;
59972;SDS011;55298;-36.624;-64.282;2022-07-24T06:10:48;170.23;;;53.67;;
59972;SDS011;55298;-36.624;-64.282;2022-07-24T06:13:15;153.60;;;49.97;;
59972;SDS011;55298;-36.624;-64.282;2022-07-24T06:15:44;149.05;;;49.92;;
59972;SDS011;55298;-36.624;-64.282;2022-07-24T06:18:12;137.10;;;49.55;;
59972;SDS011;55298;-36.624;-64.282;2022-07-24T06:20:41;133.82;;;46.78;;
59972;SDS011;55298;-36.624;-64.282;2022-07-24T06:23:08;159.27;;;48.83;;
59972;SDS011;55298;-36.624;-64.282;2022-07-24T06:25:37;158.93;;;50.58;;
59972;SDS011;55298;-36.624;-64.282;2022-07-24T06:28:05;183.13;;;52.60;;
59972;SDS011;55298;-36.624;-64.282;2022-07-24T06:30:36;177.75;;;51.55;;
59972;SDS011;55298;-36.624;-64.282;2022-07-24T06:33:04;123.60;;;48.63;;
59972;SDS011;55298;-36.624;-64.282;2022-07-24T06:35:32;221.25;;;56.15;;
59972;SDS011;55298;-36.624;-64.282;2022-07-24T06:38:00;131.43;;;46.72;;
59972;SDS011;55298;-36.624;-64.282;2022-07-24T06:40:29;213.93;;;55.83;;
59972;SDS011;55298;-36.624;-64.282;2022-07-24T06:42:57;199.57;;;53.90;;
59972;SDS011;55298;-36.624;-64.282;2022-07-24T06:45:26;170.07;;;49.88;;
59972;SDS011;55298;-36.624;-64.282;2022-07-24T06:47:59;187.50;;;49.25;;
59972;SDS011;55298;-36.624;-64.282;2022-07-24T06:50:29;142.95;;;48.42;;
59972;SDS011;55298;-36.624;-64.282;2022-07-24T06:52:57;294.00;;;59.28;;
59972;SDS011;55298;-36.624;-64.282;2022-07-24T06:55:26;249.15;;;57.10;;
59972;SDS011;55298;-36.624;-64.282;2022-07-24T06:57:53;119.50;;;45.50;;
59972;SDS011;55298;-36.624;-64.282;2022-07-24T07:00:23;141.20;;;48.38;;
59972;SDS011;55298;-36.624;-64.282;2022-07-24T07:02:52;293.80;;;56.88;;
59972;SDS011;55298;-36.624;-64.282;2022-07-24T07:05:22;194.50;;;51.50;;
59972;SDS011;55298;-36.624;-64.282;2022-07-24T07:07:50;225.45;;;55.72;;
59972;SDS011;55298;-36.624;-64.282;2022-07-24T07:10:19;139.88;;;47.58;;
59972;SDS011;55298;-36.624;-64.282;2022-07-24T07:12:49;171.38;;;49.55;;
59972;SDS011;55298;-36.624;-64.282;2022-07-24T07:15:18;209.00;;;51.85;;
59972;SDS011;55298;-36.624;-64.282;2022-07-24T07:17:47;224.57;;;56.00;;
59972;SDS011;55298;-36.624;-64.282;2022-07-24T07:20:15;201.18;;;50.50;;
59972;SDS011;55298;-36.624;-64.282;2022-07-24T07:22:43;192.05;;;48.55;;
59972;SDS011;55298;-36.624;-64.282;2022-07-24T07:25:13;222.15;;;54.03;;
59972;SDS011;55298;-36.624;-64.282;2022-07-24T07:27:40;148.75;;;43.88;;
59972;SDS011;55298;-36.624;-64.282;2022-07-24T07:30:10;234.20;;;53.75;;
59972;SDS011;55298;-36.624;-64.282;2022-07-24T07:32:39;219.10;;;50.67;;
59972;SDS011;55298;-36.624;-64.282;2022-07-24T07:35:09;281.65;;;55.47;;
59972;SDS011;55298;-36.624;-64.282;2022-07-24T07:37:38;217.55;;;53.20;;
59972;SDS011;55298;-36.624;-64.282;2022-07-24T07:40:07;198.45;;;49.20;;
59972;SDS011;55298;-36.624;-64.282;2022-07-24T07:42:35;288.73;;;59.83;;
59972;SDS011;55298;-36.624;-64.282;2022-07-24T07:45:04;206.55;;;51.88;;
59972;SDS011;55298;-36.624;-64.282;2022-07-24T07:47:35;219.23;;;50.47;;
59972;SDS011;55298;-36.624;-64.282;2022-07-24T07:50:03;245.15;;;53.05;;
59972;SDS011;55298;-36.624;-64.282;2022-07-24T07:52:32;184.73;;;51.47;;
59972;SDS011;55298;-36.624;-64.282;2022-07-24T07:55:00;267.98;;;54.88;;
59972;SDS011;55298;-36.624;-64.282;2022-07-24T07:57:28;248.75;;;53.20;;
59972;SDS011;55298;-36.624;-64.282;2022-07-24T07:59:56;216.18;;;49.00;;
59972;SDS011;55298;-36.624;-64.282;2022-07-24T08:02:25;261.67;;;52.00;;
59972;SDS011;55298;-36.624;-64.282;2022-07-24T08:04:56;230.02;;;53.10;;
59972;SDS011;55298;-36.624;-64.282;2022-07-24T08:07:26;331.85;;;63.65;;
59972;SDS011;55298;-36.624;-64.282;2022-07-24T08:09:53;160.45;;;48.95;;
59972;SDS011;55298;-36.624;-64.282;2022-07-24T08:12:22;244.80;;;54.47;;
59972;SDS011;55298;-36.624;-64.282;2022-07-24T08:14:52;249.57;;;53.33;;
59972;SDS011;55298;-36.624;-64.282;2022-07-24T08:17:20;218.73;;;52.50;;
59972;SDS011;55298;-36.624;-64.282;2022-07-24T08:19:48;250.10;;;53.38;;
59972;SDS011;55298;-36.624;-64.282;2022-07-24T08:22:17;137.82;;;43.60;;
59972;SDS011;55298;-36.624;-64.282;2022-07-24T08:24:45;226.70;;;50.25;;
59972;SDS011;55298;-36.624;-64.282;2022-07-24T08:27:14;225.75;;;50.67;;
59972;SDS011;55298;-36.624;-64.282;2022-07-24T08:29:42;211.20;;;49.75;;
59972;SDS011;55298;-36.624;-64.282;2022-07-24T08:32:11;281.67;;;54.53;;
59972;SDS011;55298;-36.624;-64.282;2022-07-24T08:34:41;239.50;;;51.25;;
59972;SDS011;55298;-36.624;-64.282;2022-07-24T08:37:10;224.07;;;49.88;;
59972;SDS011;55298;-36.624;-64.282;2022-07-24T08:39:38;245.07;;;52.47;;
59972;SDS011;55298;-36.624;-64.282;2022-07-24T08:42:07;216.38;;;49.95;;
59972;SDS011;55298;-36.624;-64.282;2022-07-24T08:44:35;142.55;;;44.35;;
59972;SDS011;55298;-36.624;-64.282;2022-07-24T08:47:06;231.27;;;52.38;;
59972;SDS011;55298;-36.624;-64.282;2022-07-24T08:49:35;230.15;;;49.58;;
59972;SDS011;55298;-36.624;-64.282;2022-07-24T08:52:06;198.15;;;47.33;;
59972;SDS011;55298;-36.624;-64.282;2022-07-24T08:54:34;253.38;;;50.42;;
59972;SDS011;55298;-36.624;-64.282;2022-07-24T08:57:04;156.52;;;46.08;;
59972;SDS011;55298;-36.624;-64.282;2022-07-24T08:59:33;162.45;;;45.97;;
59972;SDS011;55298;-36.624;-64.282;2022-07-24T09:02:02;148.25;;;42.97;;
59972;SDS011;55298;-36.624;-64.282;2022-07-24T09:04:38;189.48;;;49.10;;
59972;SDS011;55298;-36.624;-64.282;2022-07-24T09:07:11;150.98;;;40.67;;
59972;SDS011;55298;-36.624;-64.282;2022-07-24T09:09:42;246.23;;;50.38;;
59972;SDS011;55298;-36.624;-64.282;2022-07-24T09:12:19;208.98;;;48.75;;
59972;SDS011;55298;-36.624;-64.282;2022-07-24T09:14:48;213.65;;;49.30;;
59972;SDS011;55298;-36.624;-64.282;2022-07-24T09:17:18;185.25;;;49.35;;
59972;SDS011;55298;-36.624;-64.282;2022-07-24T09:19:54;228.57;;;47.65;;
59972;SDS011;55298;-36.624;-64.282;2022-07-24T09:22:37;227.40;;;49.90;;
59972;SDS011;55298;-36.624;-64.282;2022-07-24T09:27:37;228.27;;;49.58;;
59972;SDS011;55298;-36.624;-64.282;2022-07-24T09:30:08;184.38;;;45.65;;
59972;SDS011;55298;-36.624;-64.282;2022-07-24T09:33:06;222.95;;;51.78;;
59972;SDS011;55298;-36.624;-64.282;2022-07-24T09:35:44;209.70;;;49.60;;
59972;SDS011;55298;-36.624;-64.282;2022-07-24T09:38:19;183.18;;;48.60;;
59972;SDS011;55298;-36.624;-64.282;2022-07-24T09:40:52;146.70;;;45.47;;
59972;SDS011;55298;-36.624;-64.282;2022-07-24T09:43:23;142.07;;;44.00;;
59972;SDS011;55298;-36.624;-64.282;2022-07-24T09:45:56;147.93;;;46.78;;
59972;SDS011;55298;-36.624;-64.282;2022-07-24T09:48:31;139.32;;;44.65;;
59972;SDS011;55298;-36.624;-64.282;2022-07-24T09:51:03;160.07;;;47.00;;
59972;SDS011;55298;-36.624;-64.282;2022-07-24T09:53:36;139.48;;;45.58;;
59972;SDS011;55298;-36.624;-64.282;2022-07-24T09:59:28;171.45;;;46.58;;
59972;SDS011;55298;-36.624;-64.282;2022-07-24T10:01:58;155.45;;;47.40;;
59972;SDS011;55298;-36.624;-64.282;2022-07-24T10:04:28;148.60;;;46.72;;
59972;SDS011;55298;-36.624;-64.282;2022-07-24T10:07:02;180.15;;;49.97;;
59972;SDS011;55298;-36.624;-64.282;2022-07-24T10:09:31;148.88;;;46.58;;
59972;SDS011;55298;-36.624;-64.282;2022-07-24T10:12:03;213.30;;;51.22;;
59972;SDS011;55298;-36.624;-64.282;2022-07-24T10:14:31;111.60;;;37.35;;
59972;SDS011;55298;-36.624;-64.282;2022-07-24T10:17:04;259.08;;;55.03;;
59972;SDS011;55298;-36.624;-64.282;2022-07-24T10:22:17;217.05;;;51.22;;
59972;SDS011;55298;-36.624;-64.282;2022-07-24T10:24:55;211.50;;;52.58;;
59972;SDS011;55298;-36.624;-64.282;2022-07-24T10:27:30;164.23;;;48.33;;
59972;SDS011;55298;-36.624;-64.282;2022-07-24T10:30:02;213.80;;;54.03;;
59972;SDS011;55298;-36.624;-64.282;2022-07-24T10:32:33;140.75;;;47.05;;
59972;SDS011;55298;-36.624;-64.282;2022-07-24T10:35:08;240.55;;;54.60;;
59972;SDS011;55298;-36.624;-64.282;2022-07-24T10:40:52;300.55;;;55.78;;
59972;SDS011;55298;-36.624;-64.282;2022-07-24T10:43:28;210.30;;;50.30;;
59972;SDS011;55298;-36.624;-64.282;2022-07-24T10:46:13;217.98;;;50.47;;
59972;SDS011;55298;-36.624;-64.282;2022-07-24T10:48:40;225.15;;;49.30;;
59972;SDS011;55298;-36.624;-64.282;2022-07-24T10:51:11;205.20;;;49.42;;
59972;SDS011;55298;-36.624;-64.282;2022-07-24T10:53:43;179.98;;;47.05;;
59972;SDS011;55298;-36.624;-64.282;2022-07-24T10:59:10;246.15;;;53.00;;
59972;SDS011;55298;-36.624;-64.282;2022-07-24T11:01:44;271.13;;;56.45;;
59972;SDS011;55298;-36.624;-64.282;2022-07-24T11:04:25;168.75;;;49.03;;
59972;SDS011;55298;-36.624;-64.282;2022-07-24T11:06:59;309.80;;;60.70;;
59972;SDS011;55298;-36.624;-64.282;2022-07-24T11:12:38;392.17;;;61.45;;
59972;SDS011;55298;-36.624;-64.282;2022-07-24T11:15:12;338.88;;;58.22;;
59972;SDS011;55298;-36.624;-64.282;2022-07-24T11:17:54;239.55;;;56.05;;
59972;SDS011;55298;-36.624;-64.282;2022-07-24T11:20:38;290.30;;;59.05;;
59972;SDS011;55298;-36.624;-64.282;2022-07-24T11:25:46;333.27;;;58.88;;
59972;SDS011;55298;-36.624;-64.282;2022-07-24T11:28:19;300.88;;;57.22;;
59972;SDS011;55298;-36.624;-64.282;2022-07-24T11:30:47;332.20;;;56.50;;
59972;SDS011;55298;-36.624;-64.282;2022-07-24T11:33:19;229.23;;;52.58;;
59972;SDS011;55298;-36.624;-64.282;2022-07-24T11:35:49;272.80;;;57.67;;
59972;SDS011;55298;-36.624;-64.282;2022-07-24T11:38:18;259.10;;;57.75;;
59972;SDS011;55298;-36.624;-64.282;2022-07-24T11:41:04;433.88;;;120.10;;
59972;SDS011;55298;-36.624;-64.282;2022-07-24T11:43:34;608.03;;;196.48;;
59972;SDS011;55298;-36.624;-64.282;2022-07-24T11:46:06;630.07;;;185.77;;
59972;SDS011;55298;-36.624;-64.282;2022-07-24T11:48:34;238.15;;;100.53;;
59972;SDS011;55298;-36.624;-64.282;2022-07-24T11:51:06;288.52;;;90.43;;
59972;SDS011;55298;-36.624;-64.282;2022-07-24T11:53:34;179.25;;;63.42;;
59972;SDS011;55298;-36.624;-64.282;2022-07-24T11:56:03;183.23;;;81.55;;
59972;SDS011;55298;-36.624;-64.282;2022-07-24T11:58:37;183.13;;;65.38;;
59972;SDS011;55298;-36.624;-64.282;2022-07-24T12:01:18;207.75;;;53.97;;
59972;SDS011;55298;-36.624;-64.282;2022-07-24T12:03:56;189.98;;;53.20;;
59972;SDS011;55298;-36.624;-64.282;2022-07-24T12:06:27;136.55;;;50.50;;
59972;SDS011;55298;-36.624;-64.282;2022-07-24T12:08:57;148.88;;;50.65;;
59972;SDS011;55298;-36.624;-64.282;2022-07-24T12:11:38;156.20;;;53.95;;
59972;SDS011;55298;-36.624;-64.282;2022-07-24T12:14:12;196.18;;;74.03;;
59972;SDS011;55298;-36.624;-64.282;2022-07-24T12:16:43;125.97;;;55.83;;
59972;SDS011;55298;-36.624;-64.282;2022-07-24T12:19:18;145.15;;;55.65;;
59972;SDS011;55298;-36.624;-64.282;2022-07-24T12:21:50;106.72;;;49.15;;
59972;SDS011;55298;-36.624;-64.282;2022-07-24T12:24:20;89.18;;;42.28;;
59972;SDS011;55298;-36.624;-64.282;2022-07-24T12:26:50;114.90;;;67.75;;
59972;SDS011;55298;-36.624;-64.282;2022-07-24T12:29:21;90.93;;;45.92;;
59972;SDS011;55298;-36.624;-64.282;2022-07-24T12:32:18;87.95;;;48.15;;
59972;SDS011;55298;-36.624;-64.282;2022-07-24T12:34:44;89.47;;;47.47;;
59972;SDS011;55298;-36.624;-64.282;2022-07-24T12:37:14;72.60;;;42.88;;
59972;SDS011;55298;-36.624;-64.282;2022-07-24T12:39:49;64.07;;;39.10;;
59972;SDS011;55298;-36.624;-64.282;2022-07-24T12:42:31;63.55;;;39.58;;
59972;SDS011;55298;-36.624;-64.282;2022-07-24T12:45:08;64.00;;;41.58;;
59972;SDS011;55298;-36.624;-64.282;2022-07-24T12:50:37;53.53;;;38.40;;
59972;SDS011;55298;-36.624;-64.282;2022-07-24T12:53:06;44.80;;;33.28;;
59972;SDS011;55298;-36.624;-64.282;2022-07-24T12:55:36;40.55;;;32.05;;
59972;SDS011;55298;-36.624;-64.282;2022-07-24T12:58:04;41.90;;;31.42;;
59972;SDS011;55298;-36.624;-64.282;2022-07-24T13:00:32;44.03;;;32.25;;
59972;SDS011;55298;-36.624;-64.282;2022-07-24T13:03:00;34.72;;;28.92;;
59972;SDS011;55298;-36.624;-64.282;2022-07-24T13:05:39;37.10;;;29.75;;
59972;SDS011;55298;-36.624;-64.282;2022-07-24T13:08:12;31.25;;;27.17;;
59972;SDS011;55298;-36.624;-64.282;2022-07-24T13:10:41;33.03;;;26.75;;
59972;SDS011;55298;-36.624;-64.282;2022-07-24T13:13:13;32.28;;;26.20;;
59972;SDS011;55298;-36.624;-64.282;2022-07-24T13:15:42;32.65;;;27.00;;
59972;SDS011;55298;-36.624;-64.282;2022-07-24T13:18:11;30.50;;;25.42;;
59972;SDS011;55298;-36.624;-64.282;2022-07-24T13:20:39;27.60;;;22.98;;
59972;SDS011;55298;-36.624;-64.282;2022-07-24T13:23:08;26.45;;;23.58;;
59972;SDS011;55298;-36.624;-64.282;2022-07-24T13:25:36;24.27;;;20.17;;
59972;SDS011;55298;-36.624;-64.282;2022-07-24T13:28:07;26.13;;;22.80;;
59972;SDS011;55298;-36.624;-64.282;2022-07-24T13:30:36;25.95;;;20.90;;
59972;SDS011;55298;-36.624;-64.282;2022-07-24T13:33:06;25.25;;;21.02;;
59972;SDS011;55298;-36.624;-64.282;2022-07-24T13:35:34;25.13;;;21.40;;
59972;SDS011;55298;-36.624;-64.282;2022-07-24T13:38:03;21.52;;;19.33;;
59972;SDS011;55298;-36.624;-64.282;2022-07-24T13:40:31;23.15;;;20.20;;
59972;SDS011;55298;-36.624;-64.282;2022-07-24T13:43:00;23.38;;;20.95;;
59972;SDS011;55298;-36.624;-64.282;2022-07-24T13:45:28;22.48;;;19.52;;
59972;SDS011;55298;-36.624;-64.282;2022-07-24T13:47:56;22.10;;;19.00;;
59972;SDS011;55298;-36.624;-64.282;2022-07-24T13:50:25;18.92;;;16.80;;
59972;SDS011;55298;-36.624;-64.282;2022-07-24T13:52:54;21.25;;;17.70;;
59972;SDS011;55298;-36.624;-64.282;2022-07-24T13:55:23;19.15;;;17.05;;
59972;SDS011;55298;-36.624;-64.282;2022-07-24T13:57:51;19.35;;;17.27;;
59972;SDS011;55298;-36.624;-64.282;2022-07-24T14:00:20;20.95;;;18.40;;
59972;SDS011;55298;-36.624;-64.282;2022-07-24T14:02:50;20.88;;;16.52;;
59972;SDS011;55298;-36.624;-64.282;2022-07-24T14:05:21;20.42;;;17.25;;
59972;SDS011;55298;-36.624;-64.282;2022-07-24T14:07:51;19.50;;;17.30;;
59972;SDS011;55298;-36.624;-64.282;2022-07-24T14:10:22;19.70;;;17.63;;
59972;SDS011;55298;-36.624;-64.282;2022-07-24T14:12:51;19.38;;;17.40;;
59972;SDS011;55298;-36.624;-64.282;2022-07-24T14:15:19;20.58;;;17.85;;
59972;SDS011;55298;-36.624;-64.282;2022-07-24T14:17:49;21.45;;;18.00;;